TNCC/CUR METAR and TAF weather

Enter ICAO airport designator
Station Type Date Time Source
TNCC METAR 2021/07/28 20:00 UTC NOAA

TNCC 282000Z 09013KT 9999 FEW025 30/25 Q1011 NOSIG


Station Type Date Time Source
TNCC Decoded METAR 2021/07/28 20:00 UTC NOAA

Hato Airport, Curacao, Netherlands Antilles (TNCC) 12-12N 068-58W 67M
Jul 28, 2021 - 04:00 PM EDT / 2021.07.28 2000 UTC
Wind: from the E (090 degrees) at 15 MPH (13 KT):0
Visibility: greater than 7 mile(s):0
Sky conditions: mostly clear
Temperature: 86 F (30 C)
Heat index: 96.8 F (36.0 C):1
Dew Point: 77 F (25 C)
Relative Humidity: 74%
Pressure (altimeter): 29.85 in. Hg (1011 hPa)
ob: TNCC 282000Z 09013KT 9999 FEW025 30/25 Q1011 NOSIG
cycle: 20

Station Type Date Time Source
TNCC TAF 2021/07/28 18:22 UTC NOAA

TAF TNCC 281715Z 2818/2918 12013KT 9999 SCT025
BECMG 2821/2823 09013G24KT PROB30
TEMPO 2907/2918 12025KT 5000 SHRA SCT012CB BKN015

Example: see airport list